sensor_id;sensor_type;location;lat;lon;timestamp;pressure;altitude;pressure_sealevel;temperature;humidity
13456;BME280;6800;50.940;6.940;2022-11-20T00:00:13;100464.06;;;14.91;37.87
13456;BME280;6800;50.940;6.940;2022-11-20T00:04:13;100463.81;;;15.05;37.33
13456;BME280;6800;50.940;6.940;2022-11-20T00:08:13;100469.06;;;14.82;37.40
13456;BME280;6800;50.940;6.940;2022-11-20T00:12:14;100469.75;;;14.51;38.08
13456;BME280;6800;50.940;6.940;2022-11-20T00:16:16;100463.81;;;14.94;37.49
13456;BME280;6800;50.940;6.940;2022-11-20T00:20:16;100460.81;;;14.54;38.16
13456;BME280;6800;50.940;6.940;2022-11-20T00:24:17;100464.28;;;14.76;37.74
13456;BME280;6800;50.940;6.940;2022-11-20T00:28:17;100468.59;;;14.77;37.47
13456;BME280;6800;50.940;6.940;2022-11-20T00:32:17;100466.16;;;14.30;38.11
13456;BME280;6800;50.940;6.940;2022-11-20T00:36:20;100473.72;;;14.57;38.37
13456;BME280;6800;50.940;6.940;2022-11-20T00:40:20;100459.13;;;14.31;38.67
13456;BME280;6800;50.940;6.940;2022-11-20T00:44:20;100450.22;;;14.77;37.73
13456;BME280;6800;50.940;6.940;2022-11-20T00:48:21;100462.50;;;14.77;37.70
13456;BME280;6800;50.940;6.940;2022-11-20T00:52:22;100452.13;;;14.75;37.75
13456;BME280;6800;50.940;6.940;2022-11-20T00:56:22;100451.63;;;14.70;37.86
13456;BME280;6800;50.940;6.940;2022-11-20T01:00:23;100459.88;;;14.88;37.69
13456;BME280;6800;50.940;6.940;2022-11-20T01:04:23;100468.00;;;14.85;38.05
13456;BME280;6800;50.940;6.940;2022-11-20T01:08:23;100465.09;;;14.44;38.06
13456;BME280;6800;50.940;6.940;2022-11-20T01:12:23;100463.94;;;15.03;37.46
13456;BME280;6800;50.940;6.940;2022-11-20T01:16:30;100465.34;;;14.74;37.59
13456;BME280;6800;50.940;6.940;2022-11-20T01:20:34;100460.81;;;14.54;38.39
13456;BME280;6800;50.940;6.940;2022-11-20T01:24:35;100458.09;;;14.77;38.04
13456;BME280;6800;50.940;6.940;2022-11-20T01:28:36;100449.59;;;14.74;37.79
13456;BME280;6800;50.940;6.940;2022-11-20T01:32:36;100449.38;;;14.77;37.40
13456;BME280;6800;50.940;6.940;2022-11-20T01:36:38;100453.53;;;14.68;37.83
13456;BME280;6800;50.940;6.940;2022-11-20T01:40:38;100444.22;;;14.64;38.10
13456;BME280;6800;50.940;6.940;2022-11-20T01:44:49;100439.22;;;14.83;37.56
13456;BME280;6800;50.940;6.940;2022-11-20T01:48:55;100438.63;;;14.80;37.31
13456;BME280;6800;50.940;6.940;2022-11-20T01:53:02;100438.88;;;14.77;36.63
13456;BME280;6800;50.940;6.940;2022-11-20T01:57:06;100439.44;;;15.03;36.89
13456;BME280;6800;50.940;6.940;2022-11-20T02:01:09;100418.91;;;14.97;37.16
13456;BME280;6800;50.940;6.940;2022-11-20T02:05:19;100421.41;;;14.98;37.47
13456;BME280;6800;50.940;6.940;2022-11-20T02:09:22;100414.72;;;14.94;37.04
13456;BME280;6800;50.940;6.940;2022-11-20T02:13:22;100405.94;;;13.70;38.84
13456;BME280;6800;50.940;6.940;2022-11-20T02:17:41;100417.97;;;14.64;37.57
13456;BME280;6800;50.940;6.940;2022-11-20T02:21:55;100417.84;;;14.77;36.95
13456;BME280;6800;50.940;6.940;2022-11-20T02:26:02;100417.13;;;14.64;37.20
13456;BME280;6800;50.940;6.940;2022-11-20T02:30:05;100421.41;;;14.87;37.15
13456;BME280;6800;50.940;6.940;2022-11-20T02:34:10;100420.69;;;14.85;36.95
13456;BME280;6800;50.940;6.940;2022-11-20T02:38:11;100422.13;;;14.56;37.82
13456;BME280;6800;50.940;6.940;2022-11-20T02:42:13;100404.34;;;14.81;37.19
13456;BME280;6800;50.940;6.940;2022-11-20T02:46:13;100397.19;;;14.83;37.33
13456;BME280;6800;50.940;6.940;2022-11-20T02:50:16;100402.31;;;14.41;37.89
13456;BME280;6800;50.940;6.940;2022-11-20T02:54:16;100398.84;;;14.51;37.81
13456;BME280;6800;50.940;6.940;2022-11-20T02:58:16;100408.88;;;14.68;37.52
13456;BME280;6800;50.940;6.940;2022-11-20T03:02:16;100403.75;;;14.56;37.48
13456;BME280;6800;50.940;6.940;2022-11-20T03:06:17;100404.28;;;14.26;37.85
13456;BME280;6800;50.940;6.940;2022-11-20T03:10:17;100392.53;;;14.43;37.49
13456;BME280;6800;50.940;6.940;2022-11-20T03:14:17;100392.50;;;14.76;37.64
13456;BME280;6800;50.940;6.940;2022-11-20T03:18:18;100390.13;;;14.51;38.13
13456;BME280;6800;50.940;6.940;2022-11-20T03:22:18;100394.66;;;14.49;38.04
13456;BME280;6800;50.940;6.940;2022-11-20T03:26:21;100397.31;;;14.71;38.07
13456;BME280;6800;50.940;6.940;2022-11-20T03:30:21;100387.41;;;14.52;37.77
13456;BME280;6800;50.940;6.940;2022-11-20T03:34:22;100397.91;;;13.95;39.00
13456;BME280;6800;50.940;6.940;2022-11-20T03:38:23;100391.28;;;13.79;39.27
13456;BME280;6800;50.940;6.940;2022-11-20T03:42:23;100392.47;;;14.21;38.30
13456;BME280;6800;50.940;6.940;2022-11-20T03:46:42;100384.97;;;13.81;39.65
13456;BME280;6800;50.940;6.940;2022-11-20T03:50:42;100384.13;;;14.16;39.35
13456;BME280;6800;50.940;6.940;2022-11-20T03:54:42;100382.38;;;14.38;38.72
13456;BME280;6800;50.940;6.940;2022-11-20T03:58:43;100383.31;;;14.59;38.63
13456;BME280;6800;50.940;6.940;2022-11-20T04:02:43;100388.94;;;14.55;38.39
13456;BME280;6800;50.940;6.940;2022-11-20T04:06:43;100382.97;;;14.64;38.43
13456;BME280;6800;50.940;6.940;2022-11-20T04:10:44;100377.50;;;14.67;38.08
13456;BME280;6800;50.940;6.940;2022-11-20T04:14:44;100375.81;;;14.66;38.40
13456;BME280;6800;50.940;6.940;2022-11-20T04:18:44;100371.88;;;14.60;39.13
13456;BME280;6800;50.940;6.940;2022-11-20T04:22:45;100363.16;;;14.49;38.76
13456;BME280;6800;50.940;6.940;2022-11-20T04:26:45;100355.75;;;14.43;38.92
13456;BME280;6800;50.940;6.940;2022-11-20T04:30:45;100365.97;;;14.24;39.52
13456;BME280;6800;50.940;6.940;2022-11-20T04:34:46;100368.84;;;14.21;39.45
13456;BME280;6800;50.940;6.940;2022-11-20T04:38:49;100369.91;;;14.07;40.23
13456;BME280;6800;50.940;6.940;2022-11-20T04:42:50;100376.72;;;14.21;39.73
13456;BME280;6800;50.940;6.940;2022-11-20T04:46:50;100369.22;;;14.27;39.64
13456;BME280;6800;50.940;6.940;2022-11-20T04:50:51;100377.84;;;14.29;40.07
13456;BME280;6800;50.940;6.940;2022-11-20T04:54:51;100381.44;;;14.39;39.39
13456;BME280;6800;50.940;6.940;2022-11-20T04:58:54;100385.00;;;14.38;39.63
13456;BME280;6800;50.940;6.940;2022-11-20T05:02:55;100390.06;;;14.06;40.13
13456;BME280;6800;50.940;6.940;2022-11-20T05:06:55;100388.69;;;14.47;40.16
13456;BME280;6800;50.940;6.940;2022-11-20T05:11:06;100390.00;;;14.63;39.45
13456;BME280;6800;50.940;6.940;2022-11-20T05:15:07;100384.63;;;14.76;39.78
13456;BME280;6800;50.940;6.940;2022-11-20T05:19:08;100385.97;;;14.70;39.18
13456;BME280;6800;50.940;6.940;2022-11-20T05:23:08;100383.47;;;14.69;39.57
13456;BME280;6800;50.940;6.940;2022-11-20T05:27:08;100382.25;;;14.84;39.51
13456;BME280;6800;50.940;6.940;2022-11-20T05:31:13;100383.19;;;14.83;39.38
13456;BME280;6800;50.940;6.940;2022-11-20T05:35:14;100378.06;;;14.81;39.23
13456;BME280;6800;50.940;6.940;2022-11-20T05:39:14;100381.63;;;14.80;39.36
13456;BME280;6800;50.940;6.940;2022-11-20T05:43:14;100380.56;;;14.94;38.79
13456;BME280;6800;50.940;6.940;2022-11-20T05:47:14;100380.56;;;14.83;39.02
13456;BME280;6800;50.940;6.940;2022-11-20T05:51:17;100381.06;;;14.88;38.80
13456;BME280;6800;50.940;6.940;2022-11-20T05:55:17;100381.03;;;14.99;38.58
13456;BME280;6800;50.940;6.940;2022-11-20T05:59:17;100381.63;;;14.92;39.43
13456;BME280;6800;50.940;6.940;2022-11-20T06:03:18;100385.66;;;15.07;38.61
13456;BME280;6800;50.940;6.940;2022-11-20T06:07:18;100371.97;;;14.92;39.42
13456;BME280;6800;50.940;6.940;2022-11-20T06:11:18;100377.91;;;15.05;39.23
13456;BME280;6800;50.940;6.940;2022-11-20T06:15:18;100377.75;;;15.18;38.76
13456;BME280;6800;50.940;6.940;2022-11-20T06:19:19;100377.06;;;15.16;38.93
13456;BME280;6800;50.940;6.940;2022-11-20T06:23:19;100377.28;;;15.13;38.84
13456;BME280;6800;50.940;6.940;2022-11-20T06:27:19;100375.16;;;15.07;38.79
13456;BME280;6800;50.940;6.940;2022-11-20T06:31:22;100366.78;;;15.02;38.97
13456;BME280;6800;50.940;6.940;2022-11-20T06:35:26;100371.50;;;14.76;39.28
13456;BME280;6800;50.940;6.940;2022-11-20T06:39:26;100372.41;;;15.08;39.16
13456;BME280;6800;50.940;6.940;2022-11-20T06:43:28;100382.41;;;15.14;39.17
13456;BME280;6800;50.940;6.940;2022-11-20T06:47:28;100385.31;;;15.11;38.74
13456;BME280;6800;50.940;6.940;2022-11-20T06:51:28;100388.41;;;15.16;38.69
13456;BME280;6800;50.940;6.940;2022-11-20T06:55:29;100388.72;;;15.23;39.24
13456;BME280;6800;50.940;6.940;2022-11-20T06:59:30;100385.00;;;14.38;40.05
13456;BME280;6800;50.940;6.940;2022-11-20T07:03:30;100394.88;;;13.78;41.26
13456;BME280;6800;50.940;6.940;2022-11-20T07:07:30;100392.16;;;14.36;39.93
13456;BME280;6800;50.940;6.940;2022-11-20T07:11:31;100405.66;;;14.76;38.79
13456;BME280;6800;50.940;6.940;2022-11-20T07:15:31;100400.38;;;14.87;39.10
13456;BME280;6800;50.940;6.940;2022-11-20T07:19:31;100407.91;;;14.92;38.43
13456;BME280;6800;50.940;6.940;2022-11-20T07:23:31;100416.69;;;15.24;38.44
13456;BME280;6800;50.940;6.940;2022-11-20T07:27:32;100412.78;;;15.18;38.54
13456;BME280;6800;50.940;6.940;2022-11-20T07:31:32;100414.94;;;15.13;37.81
13456;BME280;6800;50.940;6.940;2022-11-20T07:35:32;100405.34;;;15.23;37.91
13456;BME280;6800;50.940;6.940;2022-11-20T07:39:33;100405.34;;;15.23;38.32
13456;BME280;6800;50.940;6.940;2022-11-20T07:43:33;100421.22;;;15.33;38.10
13456;BME280;6800;50.940;6.940;2022-11-20T07:47:36;100418.59;;;15.33;38.05
13456;BME280;6800;50.940;6.940;2022-11-20T07:51:36;100403.06;;;15.19;38.04
13456;BME280;6800;50.940;6.940;2022-11-20T07:55:36;100397.94;;;15.17;38.37
13456;BME280;6800;50.940;6.940;2022-11-20T07:59:36;100407.47;;;15.29;37.92
13456;BME280;6800;50.940;6.940;2022-11-20T08:03:38;100407.31;;;15.42;37.71
13456;BME280;6800;50.940;6.940;2022-11-20T08:07:40;100403.81;;;15.63;37.53
13456;BME280;6800;50.940;6.940;2022-11-20T08:11:40;100397.78;;;15.30;37.59
13456;BME280;6800;50.940;6.940;2022-11-20T08:15:59;100395.38;;;15.49;36.97
13456;BME280;6800;50.940;6.940;2022-11-20T08:19:59;100398.63;;;15.73;37.21
13456;BME280;6800;50.940;6.940;2022-11-20T08:23:59;100393.44;;;15.83;37.22
13456;BME280;6800;50.940;6.940;2022-11-20T08:28:02;100399.69;;;15.50;38.12
13456;BME280;6800;50.940;6.940;2022-11-20T08:32:03;100405.78;;;15.39;38.51
13456;BME280;6800;50.940;6.940;2022-11-20T08:36:04;100403.53;;;15.78;38.44
13456;BME280;6800;50.940;6.940;2022-11-20T08:40:05;100411.66;;;15.75;38.75
13456;BME280;6800;50.940;6.940;2022-11-20T08:44:07;100395.69;;;16.08;37.95
13456;BME280;6800;50.940;6.940;2022-11-20T08:48:07;100394.88;;;16.07;37.61
13456;BME280;6800;50.940;6.940;2022-11-20T08:52:07;100405.50;;;16.06;36.79
13456;BME280;6800;50.940;6.940;2022-11-20T08:56:08;100402.63;;;15.88;37.64
13456;BME280;6800;50.940;6.940;2022-11-20T09:00:10;100402.50;;;15.90;37.56
13456;BME280;6800;50.940;6.940;2022-11-20T09:04:10;100410.31;;;15.80;38.06
13456;BME280;6800;50.940;6.940;2022-11-20T09:08:11;100407.28;;;15.85;37.63
13456;BME280;6800;50.940;6.940;2022-11-20T09:12:12;100396.88;;;16.24;37.08
13456;BME280;6800;50.940;6.940;2022-11-20T09:16:12;100398.19;;;16.90;36.80
13456;BME280;6800;50.940;6.940;2022-11-20T09:20:14;100392.84;;;16.71;36.51
13456;BME280;6800;50.940;6.940;2022-11-20T09:24:14;100387.25;;;16.65;37.29
13456;BME280;6800;50.940;6.940;2022-11-20T09:28:14;100384.38;;;16.68;36.35
13456;BME280;6800;50.940;6.940;2022-11-20T09:32:14;100372.47;;;16.43;36.70
13456;BME280;6800;50.940;6.940;2022-11-20T09:36:15;100374.03;;;16.95;36.10
13456;BME280;6800;50.940;6.940;2022-11-20T09:40:24;100371.50;;;16.84;35.54
13456;BME280;6800;50.940;6.940;2022-11-20T09:44:40;100368.31;;;17.68;34.94
13456;BME280;6800;50.940;6.940;2022-11-20T09:49:14;100373.72;;;17.28;35.05
13456;BME280;6800;50.940;6.940;2022-11-20T09:53:33;100379.25;;;16.76;36.07
13456;BME280;6800;50.940;6.940;2022-11-20T09:57:38;100373.88;;;16.77;36.41
13456;BME280;6800;50.940;6.940;2022-11-20T10:01:40;100364.44;;;17.53;35.26
13456;BME280;6800;50.940;6.940;2022-11-20T10:05:49;100376.63;;;17.44;35.00
13456;BME280;6800;50.940;6.940;2022-11-20T10:09:54;100380.09;;;17.45;35.24
13456;BME280;6800;50.940;6.940;2022-11-20T10:18:39;100369.53;;;16.67;36.47
13456;BME280;6800;50.940;6.940;2022-11-20T10:22:56;100363.78;;;16.92;36.96
13456;BME280;6800;50.940;6.940;2022-11-20T10:31:26;100357.72;;;16.61;37.52
13456;BME280;6800;50.940;6.940;2022-11-20T10:35:40;100344.16;;;16.15;38.30
13456;BME280;6800;50.940;6.940;2022-11-20T10:39:47;100327.06;;;16.60;37.54
13456;BME280;6800;50.940;6.940;2022-11-20T10:43:52;100324.41;;;17.29;37.19
13456;BME280;6800;50.940;6.940;2022-11-20T10:52:20;100312.03;;;17.00;36.25
13456;BME280;6800;50.940;6.940;2022-11-20T10:56:40;100308.28;;;17.12;37.32
13456;BME280;6800;50.940;6.940;2022-11-20T11:00:42;100296.34;;;17.08;36.95
13456;BME280;6800;50.940;6.940;2022-11-20T11:04:53;100293.16;;;17.24;37.18
13456;BME280;6800;50.940;6.940;2022-11-20T11:08:56;100286.22;;;16.45;37.72
13456;BME280;6800;50.940;6.940;2022-11-20T11:12:58;100288.94;;;16.64;37.75
13456;BME280;6800;50.940;6.940;2022-11-20T11:16:58;100269.69;;;17.02;37.21
13456;BME280;6800;50.940;6.940;2022-11-20T11:21:02;100268.13;;;16.61;37.78
13456;BME280;6800;50.940;6.940;2022-11-20T11:25:03;100271.75;;;16.30;38.19
13456;BME280;6800;50.940;6.940;2022-11-20T11:29:04;100251.50;;;17.18;37.81
13456;BME280;6800;50.940;6.940;2022-11-20T11:33:12;100255.81;;;17.19;36.96
13456;BME280;6800;50.940;6.940;2022-11-20T11:37:19;100254.13;;;16.70;37.72
13456;BME280;6800;50.940;6.940;2022-11-20T11:41:23;100235.56;;;17.00;37.25
13456;BME280;6800;50.940;6.940;2022-11-20T11:45:26;100230.66;;;17.44;36.80
13456;BME280;6800;50.940;6.940;2022-11-20T11:49:27;100222.75;;;17.25;37.11
13456;BME280;6800;50.940;6.940;2022-11-20T11:53:28;100225.97;;;16.21;38.56
13456;BME280;6800;50.940;6.940;2022-11-20T11:57:43;100228.06;;;15.88;39.72
13456;BME280;6800;50.940;6.940;2022-11-20T12:01:55;100219.41;;;16.06;39.49
13456;BME280;6800;50.940;6.940;2022-11-20T12:06:01;100205.56;;;16.54;38.89
13456;BME280;6800;50.940;6.940;2022-11-20T12:10:02;100203.06;;;16.12;39.11
13456;BME280;6800;50.940;6.940;2022-11-20T12:14:14;100193.63;;;16.00;39.15
13456;BME280;6800;50.940;6.940;2022-11-20T12:18:21;100184.50;;;16.54;38.73
13456;BME280;6800;50.940;6.940;2022-11-20T12:22:48;100180.13;;;16.43;38.86
13456;BME280;6800;50.940;6.940;2022-11-20T12:27:14;100179.00;;;15.36;40.85
13456;BME280;6800;50.940;6.940;2022-11-20T12:31:37;100174.38;;;16.87;38.85
13456;BME280;6800;50.940;6.940;2022-11-20T12:40:07;100158.78;;;17.03;37.89
13456;BME280;6800;50.940;6.940;2022-11-20T14:26:18;99985.50;;;16.96;39.52
13456;BME280;6800;50.940;6.940;2022-11-20T14:30:25;99963.53;;;17.59;38.42
13456;BME280;6800;50.940;6.940;2022-11-20T14:34:28;99961.75;;;17.23;38.99
13456;BME280;6800;50.940;6.940;2022-11-20T14:38:31;99963.38;;;17.34;38.62
13456;BME280;6800;50.940;6.940;2022-11-20T14:42:33;99960.78;;;16.60;40.65
13456;BME280;6800;50.940;6.940;2022-11-20T14:46:33;99947.91;;;16.84;39.78
13456;BME280;6800;50.940;6.940;2022-11-20T14:50:33;99947.16;;;17.01;39.70
13456;BME280;6800;50.940;6.940;2022-11-20T14:54:43;99942.78;;;16.27;41.31
13456;BME280;6800;50.940;6.940;2022-11-20T14:58:43;99937.88;;;16.61;40.20
13456;BME280;6800;50.940;6.940;2022-11-20T15:02:46;99931.53;;;16.54;41.08
13456;BME280;6800;50.940;6.940;2022-11-20T15:06:52;99925.09;;;17.02;40.17
13456;BME280;6800;50.940;6.940;2022-11-20T15:10:53;99918.50;;;16.89;41.04
13456;BME280;6800;50.940;6.940;2022-11-20T15:14:54;99913.78;;;16.56;42.10
13456;BME280;6800;50.940;6.940;2022-11-20T15:18:55;99922.31;;;16.67;42.00
13456;BME280;6800;50.940;6.940;2022-11-20T15:22:55;99923.06;;;16.96;42.15
13456;BME280;6800;50.940;6.940;2022-11-20T15:26:55;99920.34;;;16.79;43.49
13456;BME280;6800;50.940;6.940;2022-11-20T15:30:56;99916.00;;;16.60;43.93
13456;BME280;6800;50.940;6.940;2022-11-20T15:34:56;99908.28;;;16.30;45.06
13456;BME280;6800;50.940;6.940;2022-11-20T15:38:56;99898.44;;;16.78;44.85
13456;BME280;6800;50.940;6.940;2022-11-20T15:42:56;99881.88;;;17.13;44.46
13456;BME280;6800;50.940;6.940;2022-11-20T15:47:03;99883.69;;;16.85;45.30
13456;BME280;6800;50.940;6.940;2022-11-20T15:51:06;99871.47;;;16.57;45.99
13456;BME280;6800;50.940;6.940;2022-11-20T15:55:12;99859.13;;;17.30;44.76
13456;BME280;6800;50.940;6.940;2022-11-20T15:59:13;99848.56;;;17.12;45.27
13456;BME280;6800;50.940;6.940;2022-11-20T16:03:16;99842.56;;;17.20;45.46
13456;BME280;6800;50.940;6.940;2022-11-20T16:07:16;99834.09;;;17.34;45.13
13456;BME280;6800;50.940;6.940;2022-11-20T16:11:17;99829.88;;;17.58;46.07
13456;BME280;6800;50.940;6.940;2022-11-20T16:15:18;99826.78;;;17.63;45.70
13456;BME280;6800;50.940;6.940;2022-11-20T16:19:37;99824.97;;;17.81;45.71
13456;BME280;6800;50.940;6.940;2022-11-20T16:23:37;99823.69;;;17.67;45.95
13456;BME280;6800;50.940;6.940;2022-11-20T16:27:37;99808.38;;;17.71;45.86
13456;BME280;6800;50.940;6.940;2022-11-20T16:31:38;99817.56;;;17.84;45.72
13456;BME280;6800;50.940;6.940;2022-11-20T16:35:39;99814.25;;;17.82;46.03
13456;BME280;6800;50.940;6.940;2022-11-20T16:39:40;99812.44;;;17.83;45.89
13456;BME280;6800;50.940;6.940;2022-11-20T16:43:51;99804.53;;;17.83;46.67
13456;BME280;6800;50.940;6.940;2022-11-20T16:47:52;99799.19;;;17.40;46.68
13456;BME280;6800;50.940;6.940;2022-11-20T16:51:52;99794.38;;;17.53;46.80
13456;BME280;6800;50.940;6.940;2022-11-20T16:55:52;99782.81;;;17.71;46.20
13456;BME280;6800;50.940;6.940;2022-11-20T16:59:52;99777.03;;;17.50;46.67
13456;BME280;6800;50.940;6.940;2022-11-20T17:03:58;99767.75;;;16.76;48.02
13456;BME280;6800;50.940;6.940;2022-11-20T17:07:58;99761.31;;;16.88;47.72
13456;BME280;6800;50.940;6.940;2022-11-20T17:11:59;99752.16;;;17.35;47.49
13456;BME280;6800;50.940;6.940;2022-11-20T17:16:04;99745.19;;;17.08;47.83
13456;BME280;6800;50.940;6.940;2022-11-20T17:20:05;99735.13;;;16.59;48.78
13456;BME280;6800;50.940;6.940;2022-11-20T17:24:08;99724.00;;;17.18;47.69
13456;BME280;6800;50.940;6.940;2022-11-20T17:28:09;99713.38;;;17.28;47.56
13456;BME280;6800;50.940;6.940;2022-11-20T17:32:09;99694.00;;;17.37;47.66
13456;BME280;6800;50.940;6.940;2022-11-20T17:36:12;99690.44;;;16.40;49.83
13456;BME280;6800;50.940;6.940;2022-11-20T17:40:12;99692.13;;;17.11;48.24
13456;BME280;6800;50.940;6.940;2022-11-20T17:44:13;99688.19;;;16.72;48.83
13456;BME280;6800;50.940;6.940;2022-11-20T17:48:13;99684.53;;;16.91;47.99
13456;BME280;6800;50.940;6.940;2022-11-20T17:52:13;99674.47;;;17.30;47.83
13456;BME280;6800;50.940;6.940;2022-11-20T17:56:13;99655.50;;;16.83;48.93
13456;BME280;6800;50.940;6.940;2022-11-20T18:00:32;99649.94;;;16.68;49.78
13456;BME280;6800;50.940;6.940;2022-11-20T18:04:33;99646.09;;;16.35;50.13
13456;BME280;6800;50.940;6.940;2022-11-20T18:08:33;99633.63;;;16.90;48.55
13456;BME280;6800;50.940;6.940;2022-11-20T18:12:34;99621.09;;;17.10;48.50
13456;BME280;6800;50.940;6.940;2022-11-20T18:16:37;99624.66;;;16.48;49.52
13456;BME280;6800;50.940;6.940;2022-11-20T18:20:37;99615.97;;;17.08;49.00
13456;BME280;6800;50.940;6.940;2022-11-20T18:24:38;99612.69;;;17.58;47.64
13456;BME280;6800;50.940;6.940;2022-11-20T18:28:38;99608.16;;;17.25;48.49
13456;BME280;6800;50.940;6.940;2022-11-20T18:32:38;99614.16;;;17.60;48.17
13456;BME280;6800;50.940;6.940;2022-11-20T18:36:40;99614.88;;;17.70;47.81
13456;BME280;6800;50.940;6.940;2022-11-20T18:40:41;99612.16;;;17.54;47.85
13456;BME280;6800;50.940;6.940;2022-11-20T18:44:41;99602.09;;;17.91;47.32
13456;BME280;6800;50.940;6.940;2022-11-20T18:48:50;99615.56;;;17.21;48.08
13456;BME280;6800;50.940;6.940;2022-11-20T18:52:51;99604.38;;;17.94;47.30
13456;BME280;6800;50.940;6.940;2022-11-20T18:56:51;99594.19;;;18.16;46.97
13456;BME280;6800;50.940;6.940;2022-11-20T19:00:51;99586.28;;;18.08;47.22
13456;BME280;6800;50.940;6.940;2022-11-20T19:04:51;99578.22;;;18.25;47.50
13456;BME280;6800;50.940;6.940;2022-11-20T19:08:52;99581.03;;;18.24;46.90
13456;BME280;6800;50.940;6.940;2022-11-20T19:12:52;99577.38;;;18.33;47.33
13456;BME280;6800;50.940;6.940;2022-11-20T19:16:53;99570.13;;;18.43;47.08
13456;BME280;6800;50.940;6.940;2022-11-20T19:20:53;99565.00;;;18.33;47.32
13456;BME280;6800;50.940;6.940;2022-11-20T19:24:53;99558.06;;;18.24;47.45
13456;BME280;6800;50.940;6.940;2022-11-20T19:28:54;99553.16;;;18.45;47.37
13456;BME280;6800;50.940;6.940;2022-11-20T19:32:54;99564.41;;;18.55;46.83
13456;BME280;6800;50.940;6.940;2022-11-20T19:36:57;99563.03;;;18.43;47.63
13456;BME280;6800;50.940;6.940;2022-11-20T19:40:59;99556.78;;;18.36;47.45
13456;BME280;6800;50.940;6.940;2022-11-20T19:44:59;99545.75;;;18.49;46.76
13456;BME280;6800;50.940;6.940;2022-11-20T19:49:00;99560.69;;;18.24;47.35
13456;BME280;6800;50.940;6.940;2022-11-20T19:53:00;99555.41;;;18.32;47.29
13456;BME280;6800;50.940;6.940;2022-11-20T19:57:00;99555.78;;;18.45;47.58
13456;BME280;6800;50.940;6.940;2022-11-20T20:01:09;99548.69;;;18.46;47.50
13456;BME280;6800;50.940;6.940;2022-11-20T20:05:10;99548.53;;;18.72;46.93
13456;BME280;6800;50.940;6.940;2022-11-20T20:09:11;99545.75;;;18.49;47.21
13456;BME280;6800;50.940;6.940;2022-11-20T20:13:12;99544.75;;;18.66;46.90
13456;BME280;6800;50.940;6.940;2022-11-20T20:17:12;99551.84;;;18.65;46.86
13456;BME280;6800;50.940;6.940;2022-11-20T20:21:15;99553.16;;;18.69;47.47
13456;BME280;6800;50.940;6.940;2022-11-20T20:25:16;99547.84;;;18.86;47.10
13456;BME280;6800;50.940;6.940;2022-11-20T20:29:16;99560.91;;;18.79;46.22
13456;BME280;6800;50.940;6.940;2022-11-20T20:33:19;99564.34;;;18.31;47.10
13456;BME280;6800;50.940;6.940;2022-11-20T20:37:20;99557.56;;;18.37;46.14
13456;BME280;6800;50.940;6.940;2022-11-20T20:41:21;99558.13;;;18.48;45.91
13456;BME280;6800;50.940;6.940;2022-11-20T20:45:22;99551.84;;;17.75;46.05
13456;BME280;6800;50.940;6.940;2022-11-20T20:49:22;99568.03;;;18.62;44.83
13456;BME280;6800;50.940;6.940;2022-11-20T20:53:23;99558.13;;;18.56;44.18
13456;BME280;6800;50.940;6.940;2022-11-20T20:57:23;99561.91;;;18.62;45.26
13456;BME280;6800;50.940;6.940;2022-11-20T21:01:25;99570.19;;;18.51;44.76
13456;BME280;6800;50.940;6.940;2022-11-20T21:05:27;99559.25;;;18.54;44.45
13456;BME280;6800;50.940;6.940;2022-11-20T21:09:27;99574.47;;;18.76;43.67
13456;BME280;6800;50.940;6.940;2022-11-20T21:13:28;99588.44;;;18.12;44.88
13456;BME280;6800;50.940;6.940;2022-11-20T21:17:29;99588.84;;;18.74;43.36
13456;BME280;6800;50.940;6.940;2022-11-20T21:21:29;99590.97;;;17.80;45.49
13456;BME280;6800;50.940;6.940;2022-11-20T21:25:48;99604.59;;;18.09;44.29
13456;BME280;6800;50.940;6.940;2022-11-20T21:29:48;99598.91;;;18.46;43.65
13456;BME280;6800;50.940;6.940;2022-11-20T21:33:50;99597.09;;;18.54;43.28
13456;BME280;6800;50.940;6.940;2022-11-20T21:37:51;99602.00;;;18.33;43.66
13456;BME280;6800;50.940;6.940;2022-11-20T21:41:51;99614.47;;;18.07;44.71
13456;BME280;6800;50.940;6.940;2022-11-20T21:45:51;99605.59;;;18.08;44.99
13456;BME280;6800;50.940;6.940;2022-11-20T21:49:52;99611.97;;;18.55;43.72
13456;BME280;6800;50.940;6.940;2022-11-20T21:53:53;99608.13;;;18.26;44.23
13456;BME280;6800;50.940;6.940;2022-11-20T21:57:54;99598.41;;;18.66;43.26
13456;BME280;6800;50.940;6.940;2022-11-20T22:01:54;99610.13;;;18.40;43.74
13456;BME280;6800;50.940;6.940;2022-11-20T22:05:56;99605.38;;;18.59;43.59
13456;BME280;6800;50.940;6.940;2022-11-20T22:09:56;99607.00;;;18.52;43.67
13456;BME280;6800;50.940;6.940;2022-11-20T22:13:57;99599.06;;;18.68;43.69
13456;BME280;6800;50.940;6.940;2022-11-20T22:18:16;99624.28;;;18.31;44.32
13456;BME280;6800;50.940;6.940;2022-11-20T22:22:17;99613.97;;;18.53;44.32
13456;BME280;6800;50.940;6.940;2022-11-20T22:26:22;99617.50;;;18.28;44.98
13456;BME280;6800;50.940;6.940;2022-11-20T22:30:23;99622.38;;;18.57;44.57
13456;BME280;6800;50.940;6.940;2022-11-20T22:34:24;99632.78;;;18.50;45.61
13456;BME280;6800;50.940;6.940;2022-11-20T22:38:24;99640.94;;;18.15;46.03
13456;BME280;6800;50.940;6.940;2022-11-20T22:42:24;99643.13;;;18.28;46.07
13456;BME280;6800;50.940;6.940;2022-11-20T22:46:26;99650.78;;;18.47;45.95
13456;BME280;6800;50.940;6.940;2022-11-20T22:50:27;99648.97;;;18.47;46.07
13456;BME280;6800;50.940;6.940;2022-11-20T22:54:27;99653.47;;;18.13;46.86
13456;BME280;6800;50.940;6.940;2022-11-20T22:58:29;99663.69;;;18.08;47.23
13456;BME280;6800;50.940;6.940;2022-11-20T23:02:29;99659.75;;;18.12;47.24
13456;BME280;6800;50.940;6.940;2022-11-20T23:06:30;99663.03;;;18.06;46.72
13456;BME280;6800;50.940;6.940;2022-11-20T23:10:33;99666.31;;;18.00;46.85
13456;BME280;6800;50.940;6.940;2022-11-20T23:14:33;99667.03;;;18.26;46.18
13456;BME280;6800;50.940;6.940;2022-11-20T23:18:34;99676.91;;;18.08;47.13
13456;BME280;6800;50.940;6.940;2022-11-20T23:22:34;99684.06;;;18.24;46.71
13456;BME280;6800;50.940;6.940;2022-11-20T23:26:37;99672.78;;;18.55;46.51
13456;BME280;6800;50.940;6.940;2022-11-20T23:30:38;99675.31;;;18.23;47.20